Terminal Aerodrome Forecast
Issued by NWS

Current Version | Previous Version | Text Only | Print | Product List | Glossary Off
Versions: 1 2 3 4 5 6 7 8 9 10 11 12 13 14 15 16 17 18 19 20 21 22 23 24 25 26

432
FTUS41 KRLX 231736
TAFCKB
TAF
KCKB 231736Z 2318/2418 34004KT P6SM BKN040
     FM232000 VRB03KT P6SM VCTS BKN045CB
     FM232300 00000KT P6SM FEW040
     FM240700 00000KT 4SM BR FEW040
     FM241000 00000KT 2SM BR FEW060
     FM241300 VRB03KT 5SM BR SCT250
     FM241400 26004KT P6SM SCT250=

USA.gov is the U.S. government's official web portal to all federal, state and local government web resources and services.